MV Moseldijk — PBWK — position and weather

sailwx.info

Track history (hours):
 
Tides and Currents Weather Stations Pressure Air Temp Water Temp Dewpoint Dewpoint Depression Visibility Wind Speed Wind Dir Waves Ship Positions

MV Moseldijk

Last reported at 2016-May-30 22:33 UTC. Time now 2016-May-31 02:04 UTC.
Position N 35°59' W 005°17'.

Length 90 m; draft 5.5 m.

Type: Cargo ship. MMSI: 246644000.

Date/timePositionNaut miles runAvg speedWind from/ knotsBaromVisibWave heightAir tempDewpointWater temp
2016-May-30 22:33N 35°59' W 005°17'  
2016-May-27 20:32N 43°40' W 006°08'7 0.2
2016-May-26 14:19N 43°37' W 005°59'330 9.0
2016-May-25 01:32N 38°56' W 009°50'1010.5
2016-May-25 00:33N 38°45' W 009°50'8 8.4
2016-May-24 23:33N 38°38' W 009°45'1111.1
2016-May-24 22:33N 38°37' W 009°31'1211.8
2016-May-24 21:33N 38°41' W 009°17'9 8.5
2016-May-24 20:31N 38°44' W 009°06'0 0.0
2016-May-24 03:29N 38°44' W 009°06'0 0.0
2016-May-24 02:21N 38°44' W 009°06'0 0.0
2016-May-24 01:33N 38°44' W 009°06'0 0.0
2016-May-24 00:33N 38°44' W 009°06'0 0.0
2016-May-23 23:33N 38°44' W 009°06'0 0.0
2016-May-23 22:33N 38°44' W 009°06'0 0.0
2016-May-23 21:30N 38°44' W 009°06'0 0.0
2016-May-23 20:33N 38°44' W 009°06'0 0.0
2016-May-23 19:25N 38°44' W 009°06'0 0.0
2016-May-23 18:32N 38°44' W 009°06'0 0.0
2016-May-23 17:33N 38°44' W 009°06'0 0.0
2016-May-23 16:30N 38°44' W 009°06'0 0.0
2016-May-23 15:33N 38°44' W 009°06'0 0.0
2016-May-23 14:33N 38°44' W 009°06'0 0.0
2016-May-23 13:33N 38°44' W 009°06'0 0.0
2016-May-23 12:25N 38°44' W 009°06'0 0.0
2016-May-23 11:28N 38°44' W 009°06'0 0.0
2016-May-23 10:33N 38°44' W 009°06'0 0.0
2016-May-23 09:32N 38°44' W 009°06'0 0.0
2016-May-23 08:26N 38°44' W 009°06'0 0.0
2016-May-23 07:33N 38°44' W 009°06'0 0.0
2016-May-23 06:33N 38°44' W 009°06'0 0.0
2016-May-23 05:31N 38°44' W 009°06'0 0.0
2016-May-23 04:28N 38°44' W 009°06'0 0.0
2016-May-23 00:29N 38°44' W 009°06'0 0.0
2016-May-22 23:14N 38°44' W 009°06'0 0.0
2016-May-22 20:19N 38°44' W 009°06'0 0.0
2016-May-22 19:29N 38°44' W 009°06'0 0.0
2016-May-22 18:29N 38°44' W 009°06'0 0.0
2016-May-22 16:16N 38°44' W 009°06'0 0.0
2016-May-22 15:33N 38°44' W 009°06'0 0.0
2016-May-22 14:13N 38°44' W 009°06'0 0.0
2016-May-22 08:19N 38°44' W 009°06'5 6.4
2016-May-22 07:33N 38°41' W 009°11'7 7.0
2016-May-22 06:33N 38°39' W 009°20'1010.0
2016-May-22 05:33N 38°37' W 009°32'1110.7
2016-May-22 04:32N 38°37' W 009°46'9 9.3
2016-May-22 03:31N 38°36' W 009°58'  
Track history (hours):
 
Tides and Currents Weather Stations Pressure Air Temp Water Temp Dewpoint Dewpoint Depression Visibility Wind Speed Wind Dir Waves Ship Positions

MV Moseldijk

Last reported at 2016-May-30 22:33 UTC. Time now 2016-May-31 02:04 UTC.
Position N 35°59' W 005°17'.

Length 90 m; draft 5.5 m.

Type: Cargo ship. MMSI: 246644000.

Date/timePositionNaut miles runAvg speedWind from/ knotsBaromVisibWave heightAir tempDewpointWater temp
2016-May-30 22:33N 35°59' W 005°17'  
2016-May-27 20:32N 43°40' W 006°08'7 0.2
2016-May-26 14:19N 43°37' W 005°59'330 9.0
2016-May-25 01:32N 38°56' W 009°50'1010.5
2016-May-25 00:33N 38°45' W 009°50'8 8.4
2016-May-24 23:33N 38°38' W 009°45'1111.1
2016-May-24 22:33N 38°37' W 009°31'1211.8
2016-May-24 21:33N 38°41' W 009°17'9 8.5
2016-May-24 20:31N 38°44' W 009°06'0 0.0
2016-May-24 03:29N 38°44' W 009°06'0 0.0
2016-May-24 02:21N 38°44' W 009°06'0 0.0
2016-May-24 01:33N 38°44' W 009°06'0 0.0
2016-May-24 00:33N 38°44' W 009°06'0 0.0
2016-May-23 23:33N 38°44' W 009°06'0 0.0
2016-May-23 22:33N 38°44' W 009°06'0 0.0
2016-May-23 21:30N 38°44' W 009°06'0 0.0
2016-May-23 20:33N 38°44' W 009°06'0 0.0
2016-May-23 19:25N 38°44' W 009°06'0 0.0
2016-May-23 18:32N 38°44' W 009°06'0 0.0
2016-May-23 17:33N 38°44' W 009°06'0 0.0
2016-May-23 16:30N 38°44' W 009°06'0 0.0
2016-May-23 15:33N 38°44' W 009°06'0 0.0
2016-May-23 14:33N 38°44' W 009°06'0 0.0
2016-May-23 13:33N 38°44' W 009°06'0 0.0
2016-May-23 12:25N 38°44' W 009°06'0 0.0
2016-May-23 11:28N 38°44' W 009°06'0 0.0
2016-May-23 10:33N 38°44' W 009°06'0 0.0
2016-May-23 09:32N 38°44' W 009°06'0 0.0
2016-May-23 08:26N 38°44' W 009°06'0 0.0
2016-May-23 07:33N 38°44' W 009°06'0 0.0
2016-May-23 06:33N 38°44' W 009°06'0 0.0
2016-May-23 05:31N 38°44' W 009°06'0 0.0
2016-May-23 04:28N 38°44' W 009°06'0 0.0
2016-May-23 00:29N 38°44' W 009°06'0 0.0
2016-May-22 23:14N 38°44' W 009°06'0 0.0
2016-May-22 20:19N 38°44' W 009°06'0 0.0
2016-May-22 19:29N 38°44' W 009°06'0 0.0
2016-May-22 18:29N 38°44' W 009°06'0 0.0
2016-May-22 16:16N 38°44' W 009°06'0 0.0
2016-May-22 15:33N 38°44' W 009°06'0 0.0
2016-May-22 14:13N 38°44' W 009°06'0 0.0
2016-May-22 08:19N 38°44' W 009°06'5 6.4
2016-May-22 07:33N 38°41' W 009°11'7 7.0
2016-May-22 06:33N 38°39' W 009°20'1010.0
2016-May-22 05:33N 38°37' W 009°32'1110.7
2016-May-22 04:32N 38°37' W 009°46'9 9.3
2016-May-22 03:31N 38°36' W 009°58'  

Dump ship's entire track history